Time;durP1;ratioP1;P1;durP2;ratioP2;P2;SDS_P1;SDS_P2;PMS_P1;PMS_P2;Temp;Humidity;BMP_temperature;BMP_pressure;BME280_temperature;BME280_humidity;BME280_pressure;Samples;Min_cycle;Max_cycle;Signal;HPM_P1;HPM_P2
2023/09/18 00:01:40;;;;;;;4.22;3.92;;;17.50;99.90;;;;;;5034452;28;20072;-64
2023/09/18 00:04:06;;;;;;;4.28;3.97;;;17.50;99.90;;;;;;5016564;28;20095;-64
2023/09/18 00:06:32;;;;;;;3.45;3.25;;;17.50;99.90;;;;;;5034433;28;20469;-64
2023/09/18 00:08:58;;;;;;;3.80;3.50;;;17.30;99.90;;;;;;5016358;28;20107;-64
2023/09/18 00:11:24;;;;;;;4.22;3.92;;;17.40;99.90;;;;;;5033938;28;20046;-64
2023/09/18 00:13:50;;;;;;;4.45;4.15;;;17.30;99.90;;;;;;5034196;28;20037;-65
2023/09/18 00:16:16;;;;;;;4.25;3.95;;;17.30;99.90;;;;;;5016130;28;20118;-64
2023/09/18 00:18:44;;;;;;;4.60;4.30;;;17.30;99.90;;;;;;5033879;28;20038;-64
2023/09/18 00:21:10;;;;;;;4.13;3.83;;;17.30;99.90;;;;;;5016213;28;20053;-64
2023/09/18 00:23:36;;;;;;;3.97;3.67;;;17.30;99.90;;;;;;5000039;28;20045;-64
2023/09/18 00:26:02;;;;;;;3.83;3.53;;;17.30;99.90;;;;;;5033932;28;20054;-69
2023/09/18 00:28:28;;;;;;;4.25;3.92;;;18.60;99.90;;;;;;5033847;28;20041;-70
2023/09/18 00:30:53;;;;;;;4.05;3.75;;;17.20;99.90;;;;;;5033591;28;20053;-70
2023/09/18 00:33:19;;;;;;;4.47;4.15;;;17.20;99.90;;;;;;5033690;28;20038;-70
2023/09/18 00:35:46;;;;;;;4.65;4.25;;;17.30;99.90;;;;;;4999732;28;20087;-64
2023/09/18 00:38:12;;;;;;;4.32;4.03;;;17.40;99.90;;;;;;5032355;28;20598;-64
2023/09/18 00:40:38;;;;;;;4.68;4.32;;;17.20;99.90;;;;;;5033737;28;20124;-64
2023/09/18 00:43:04;;;;;;;4.07;3.78;;;17.30;99.90;;;;;;5033619;28;20573;-63
2023/09/18 00:45:29;;;;;;;3.88;3.58;;;17.30;99.90;;;;;;5015775;28;20073;-64
2023/09/18 00:47:55;;;;;;;4.05;3.75;;;17.80;99.90;;;;;;5033685;28;20393;-64
2023/09/18 00:50:21;;;;;;;4.50;4.10;;;17.20;99.90;;;;;;5033491;28;20125;-64
2023/09/18 00:52:48;;;;;;;4.30;4.00;;;18.30;99.90;;;;;;5033650;28;20120;-65
2023/09/18 00:55:14;;;;;;;4.00;3.70;;;17.80;99.90;;;;;;5033638;28;20429;-65
2023/09/18 00:57:42;;;;;;;4.35;4.05;;;17.20;99.90;;;;;;5033249;28;20048;-67
2023/09/18 01:00:09;;;;;;;3.33;3.13;;;17.20;99.90;;;;;;5032274;28;20048;-67
2023/09/18 01:02:34;;;;;;;3.58;3.33;;;17.20;99.90;;;;;;5015491;28;20056;-67
2023/09/18 01:05:01;;;;;;;4.05;3.75;;;17.20;99.90;;;;;;5015693;28;20041;-67
2023/09/18 01:07:28;;;;;;;3.65;3.45;;;17.20;99.90;;;;;;5033101;28;20041;-67
2023/09/18 01:09:55;;;;;;;3.38;3.17;;;17.20;99.90;;;;;;5015681;28;20045;-67
2023/09/18 01:12:34;;;;;;;4.05;3.67;;;17.20;99.90;;;;;;5015303;28;20094;-67
2023/09/18 01:15:10;;;;;;;3.65;3.35;;;17.80;99.90;;;;;;5033301;28;20041;-67
2023/09/18 01:17:40;;;;;;;3.72;3.42;;;17.20;99.90;;;;;;5015284;28;20057;-67
2023/09/18 01:20:09;;;;;;;4.97;3.50;;;17.20;99.90;;;;;;5032933;28;20041;-67
2023/09/18 01:22:35;;;;;;;3.78;3.50;;;17.20;99.90;;;;;;5032879;28;20048;-67
2023/09/18 01:25:01;;;;;;;3.65;3.45;;;17.20;99.90;;;;;;5032799;28;20041;-67
2023/09/18 01:27:26;;;;;;;4.22;3.92;;;17.20;99.90;;;;;;5015179;28;20040;-67
2023/09/18 01:29:53;;;;;;;3.42;3.13;;;19.10;99.90;;;;;;5015334;28;20037;-66
2023/09/18 01:32:19;;;;;;;3.92;3.63;;;17.20;99.90;;;;;;5033017;28;20044;-66
2023/09/18 01:34:48;;;;;;;3.40;3.10;;;17.20;99.90;;;;;;5015103;28;20101;-66
2023/09/18 01:37:16;;;;;;;3.35;3.15;;;17.20;99.90;;;;;;5033025;28;20060;-66
2023/09/18 01:39:45;;;;;;;3.25;3.03;;;17.30;99.90;;;;;;5031510;28;20072;-66
2023/09/18 01:42:11;;;;;;;3.70;3.40;;;17.20;99.90;;;;;;5037065;28;20124;-66
2023/09/18 01:44:40;;;;;;;3.88;3.58;;;17.30;99.90;;;;;;5019331;28;20123;-66
2023/09/18 01:47:08;;;;;;;3.67;3.38;;;17.30;99.90;;;;;;5037180;28;20049;-65
2023/09/18 01:49:40;;;;;;;3.22;3.03;;;17.30;99.90;;;;;;5036996;28;20085;-63
2023/09/18 01:52:06;;;;;;;3.72;3.42;;;17.30;99.90;;;;;;5036735;28;20049;-64
2023/09/18 01:54:33;;;;;;;3.10;2.90;;;18.00;99.90;;;;;;5036892;28;20060;-64
2023/09/18 01:57:03;;;;;;;3.20;3.00;;;17.40;99.90;;;;;;5018898;28;20111;-63
2023/09/18 01:59:28;;;;;;;3.20;2.90;;;17.20;99.90;;;;;;5019074;28;20397;-64
2023/09/18 02:01:55;;;;;;;2.95;2.75;;;17.20;99.90;;;;;;5019018;28;20429;-68
2023/09/18 02:04:21;;;;;;;3.70;3.40;;;17.70;99.90;;;;;;5018907;28;20048;-64
2023/09/18 02:06:49;;;;;;;3.38;3.17;;;17.20;99.90;;;;;;5036268;28;20049;-64
2023/09/18 02:09:14;;;;;;;3.30;3.00;;;17.20;99.90;;;;;;5036653;28;20041;-63
2023/09/18 02:11:42;;;;;;;3.33;3.13;;;17.20;99.90;;;;;;5036438;28;20485;-63
2023/09/18 02:14:09;;;;;;;3.10;2.90;;;17.20;99.90;;;;;;5036538;28;20125;-63
2023/09/18 02:16:37;;;;;;;3.13;2.92;;;17.10;99.90;;;;;;5036146;28;20060;-63
2023/09/18 02:19:04;;;;;;;2.72;2.53;;;17.10;99.90;;;;;;5036400;28;20439;-63
2023/09/18 02:21:30;;;;;;;2.88;2.67;;;17.10;99.90;;;;;;5036369;28;20038;-63
2023/09/18 02:23:56;;;;;;;3.15;2.85;;;17.10;99.90;;;;;;5036367;28;20478;-63
2023/09/18 02:26:23;;;;;;;3.40;3.05;;;17.10;99.90;;;;;;5036295;28;20128;-63
2023/09/18 02:28:49;;;;;;;3.00;2.80;;;17.10;99.90;;;;;;5036233;28;20069;-63
2023/09/18 02:31:15;;;;;;;3.08;2.78;;;17.10;99.90;;;;;;5036136;28;20463;-64
2023/09/18 02:33:41;;;;;;;2.85;2.53;;;17.10;99.90;;;;;;5036090;28;20042;-63
2023/09/18 02:36:07;;;;;;;3.13;2.92;;;17.10;99.90;;;;;;5036066;28;20099;-63
2023/09/18 02:38:33;;;;;;;2.50;2.30;;;17.10;99.90;;;;;;5018358;28;20478;-63
2023/09/18 02:40:59;;;;;;;3.33;2.88;;;17.00;99.90;;;;;;5035965;28;20052;-63
2023/09/18 02:43:25;;;;;;;2.70;2.50;;;17.10;99.90;;;;;;5035687;28;20037;-63
2023/09/18 02:45:51;;;;;;;2.85;2.65;;;17.10;99.90;;;;;;5035879;28;20033;-63
2023/09/18 02:48:17;;;;;;;2.88;2.67;;;17.10;99.90;;;;;;5035875;28;20462;-64
2023/09/18 02:50:43;;;;;;;2.92;2.72;;;17.10;99.90;;;;;;5035749;28;20129;-64
2023/09/18 02:53:20;;;;;;;2.60;2.40;;;17.10;99.90;;;;;;5016427;28;20049;-63
2023/09/18 02:55:54;;;;;;;2.83;2.63;;;17.10;99.90;;;;;;5035737;28;20107;-63
2023/09/18 02:58:20;;;;;;;2.90;2.60;;;17.00;99.90;;;;;;5035382;28;20072;-63
2023/09/18 03:00:48;;;;;;;2.33;2.15;;;17.10;99.90;;;;;;5035647;28;20037;-63
2023/09/18 03:03:14;;;;;;;2.90;2.70;;;17.10;99.90;;;;;;5035375;28;20045;-63
2023/09/18 03:05:41;;;;;;;2.47;2.28;;;17.10;99.90;;;;;;5035530;28;20393;-63
2023/09/18 03:08:08;;;;;;;2.75;2.22;;;17.00;99.90;;;;;;5035478;28;20109;-63
2023/09/18 03:10:42;;;;;;;2.88;2.67;;;17.00;99.90;;;;;;5035384;28;20037;-63
2023/09/18 03:13:14;;;;;;;2.50;2.30;;;17.00;99.90;;;;;;5035111;28;20076;-63
2023/09/18 03:15:39;;;;;;;2.38;2.17;;;17.00;99.90;;;;;;5035109;28;20058;-63
2023/09/18 03:18:07;;;;;;;2.78;2.58;;;16.90;99.90;;;;;;5035471;28;20121;-66
2023/09/18 03:20:32;;;;;;;2.50;2.30;;;17.00;99.90;;;;;;5035096;28;20037;-67
2023/09/18 03:23:00;;;;;;;2.60;2.40;;;16.90;99.90;;;;;;5035201;28;20038;-66
2023/09/18 03:25:26;;;;;;;2.70;2.50;;;16.90;99.90;;;;;;5035278;28;20041;-66
2023/09/18 03:27:54;;;;;;;2.50;2.30;;;17.00;99.90;;;;;;5035081;28;20041;-66
2023/09/18 03:30:20;;;;;;;2.47;2.28;;;16.90;99.90;;;;;;5035016;28;20046;-66
2023/09/18 03:32:45;;;;;;;2.28;2.08;;;17.00;99.90;;;;;;5034673;28;20063;-66
2023/09/18 03:35:17;;;;;;;2.38;2.17;;;17.00;99.90;;;;;;5034966;28;20030;-66
2023/09/18 03:37:56;;;;;;;2.40;2.20;;;16.90;99.90;;;;;;5034860;28;20045;-66
2023/09/18 03:40:22;;;;;;;1.98;1.83;;;16.90;99.90;;;;;;5034618;28;20037;-66
2023/09/18 03:42:48;;;;;;;2.22;2.03;;;17.00;99.90;;;;;;5034837;28;20119;-66
2023/09/18 03:45:14;;;;;;;2.75;1.90;;;16.90;99.90;;;;;;5034872;28;20037;-66
2023/09/18 03:47:41;;;;;;;2.35;2.15;;;16.90;99.90;;;;;;5034682;28;20039;-66
2023/09/18 03:50:11;;;;;;;2.30;2.17;;;16.90;99.90;;;;;;5034337;28;20052;-66
2023/09/18 03:52:38;;;;;;;1.80;1.70;;;16.90;99.90;;;;;;5034574;28;20474;-66
2023/09/18 03:55:05;;;;;;;2.90;2.20;;;16.90;99.90;;;;;;5034598;28;20063;-67
2023/09/18 03:57:30;;;;;;;2.28;2.05;;;16.90;99.90;;;;;;5034213;28;20382;-67
2023/09/18 03:59:56;;;;;;;3.25;1.85;;;16.90;99.90;;;;;;5034518;28;20116;-67
2023/09/18 04:02:25;;;;;;;2.10;1.90;;;17.00;99.90;;;;;;5034170;28;20053;-66
2023/09/18 04:04:50;;;;;;;2.28;2.08;;;17.00;99.90;;;;;;5034017;28;20037;-67
2023/09/18 04:07:16;;;;;;;2.38;2.17;;;17.00;99.90;;;;;;5034292;28;20461;-67
2023/09/18 04:09:42;;;;;;;2.05;1.77;;;17.00;99.90;;;;;;5033987;28;20527;-67
2023/09/18 04:12:08;;;;;;;2.42;2.22;;;17.00;99.90;;;;;;5034197;28;20045;-68
2023/09/18 04:14:34;;;;;;;1.95;1.85;;;17.00;99.90;;;;;;5033964;28;20037;-66
2023/09/18 04:17:02;;;;;;;2.08;1.98;;;17.00;99.90;;;;;;5015982;28;20488;-66
2023/09/18 04:19:28;;;;;;;2.05;1.70;;;17.00;99.90;;;;;;5034306;28;20532;-68
2023/09/18 04:21:54;;;;;;;1.90;1.80;;;17.00;99.90;;;;;;5034107;28;20037;-68
2023/09/18 04:24:20;;;;;;;1.92;1.83;;;17.00;99.90;;;;;;5033778;28;20129;-68
2023/09/18 04:26:45;;;;;;;2.20;2.03;;;17.00;99.90;;;;;;5034011;28;20120;-68
2023/09/18 04:29:11;;;;;;;2.45;2.25;;;17.00;99.90;;;;;;5033944;28;20038;-68
2023/09/18 04:31:38;;;;;;;2.20;2.00;;;17.00;99.90;;;;;;5033838;28;20049;-68
2023/09/18 04:34:03;;;;;;;2.08;1.98;;;17.10;99.90;;;;;;5033861;28;20099;-68
2023/09/18 04:36:29;;;;;;;2.10;2.00;;;17.00;99.90;;;;;;5033493;28;20045;-68
2023/09/18 04:38:55;;;;;;;2.15;2.03;;;17.00;99.90;;;;;;5033721;28;20056;-68
2023/09/18 04:41:21;;;;;;;2.30;2.10;;;17.00;99.90;;;;;;5033466;28;20397;-69
2023/09/18 04:43:46;;;;;;;2.05;1.90;;;17.00;99.90;;;;;;5033487;28;20042;-68
2023/09/18 04:46:12;;;;;;;2.28;2.10;;;17.10;99.90;;;;;;5033741;28;20134;-68
2023/09/18 04:48:38;;;;;;;2.50;2.30;;;17.10;99.90;;;;;;5033639;28;20034;-68
2023/09/18 04:51:04;;;;;;;1.80;1.70;;;17.30;99.90;;;;;;5033523;28;20044;-68
2023/09/18 04:53:31;;;;;;;2.50;2.15;;;17.50;99.90;;;;;;5033592;28;20112;-68
2023/09/18 04:55:57;;;;;;;2.80;2.50;;;17.10;99.90;;;;;;5033535;28;20481;-68
2023/09/18 04:58:22;;;;;;;1.90;1.80;;;17.10;99.90;;;;;;5033583;28;20044;-68
2023/09/18 05:00:58;;;;;;;2.10;1.90;;;17.10;99.90;;;;;;5033484;28;20040;-68
2023/09/18 05:03:25;;;;;;;1.92;1.83;;;17.20;99.90;;;;;;5033442;28;20124;-67
2023/09/18 05:05:50;;;;;;;2.75;2.55;;;17.20;99.90;;;;;;5015657;28;20045;-68
2023/09/18 05:08:16;;;;;;;2.03;1.88;;;17.20;99.90;;;;;;5033400;28;20116;-69
2023/09/18 05:10:43;;;;;;;2.55;1.80;;;17.30;99.90;;;;;;5033246;28;20041;-68
2023/09/18 05:13:09;;;;;;;2.15;2.00;;;17.20;99.90;;;;;;5033109;28;20045;-68
2023/09/18 05:15:35;;;;;;;1.90;1.80;;;17.20;99.90;;;;;;5032489;28;20092;-68
2023/09/18 05:18:01;;;;;;;3.00;1.80;;;17.20;99.90;;;;;;5033020;28;20072;-68
2023/09/18 05:20:28;;;;;;;2.67;2.00;;;17.30;99.90;;;;;;5032902;28;20041;-68
2023/09/18 05:22:55;;;;;;;1.80;1.70;;;17.30;99.90;;;;;;5032830;28;20041;-68
2023/09/18 05:25:22;;;;;;;2.13;1.92;;;17.30;99.90;;;;;;5033003;28;20041;-68
2023/09/18 05:27:54;;;;;;;2.25;2.05;;;17.40;99.90;;;;;;5032712;28;20095;-68
2023/09/18 05:30:25;;;;;;;2.00;1.60;;;17.40;99.90;;;;;;5032863;28;20404;-64
2023/09/18 05:32:50;;;;;;;2.15;1.95;;;17.50;99.90;;;;;;5033008;28;20033;-64
2023/09/18 05:35:16;;;;;;;2.67;2.05;;;17.50;99.90;;;;;;5032997;28;20091;-63
2023/09/18 05:37:43;;;;;;;1.95;1.75;;;17.60;99.90;;;;;;5032659;28;20438;-64
2023/09/18 05:40:10;;;;;;;1.80;1.70;;;17.60;99.90;;;;;;5032911;28;20116;-62
2023/09/18 05:42:37;;;;;;;2.20;2.00;;;17.60;99.90;;;;;;5032836;28;20485;-64
2023/09/18 05:45:04;;;;;;;1.55;1.45;;;17.60;99.90;;;;;;5015218;28;20053;-63
2023/09/18 05:47:31;;;;;;;2.08;1.70;;;17.60;99.90;;;;;;5032659;28;20045;-63
2023/09/18 05:49:57;;;;;;;1.80;1.70;;;17.70;99.90;;;;;;5014814;28;20416;-62
2023/09/18 05:52:23;;;;;;;2.10;1.67;;;17.70;99.90;;;;;;5032661;28;20041;-65
2023/09/18 05:54:49;;;;;;;2.55;1.92;;;17.70;99.90;;;;;;5032579;28;20049;-63
2023/09/18 05:57:16;;;;;;;1.70;1.60;;;17.70;99.90;;;;;;5032891;28;20040;-62
2023/09/18 05:59:43;;;;;;;1.92;1.58;;;17.70;99.90;;;;;;5032782;28;20041;-63
2023/09/18 06:02:09;;;;;;;2.45;1.92;;;17.70;99.90;;;;;;5032604;28;20041;-63
2023/09/18 06:04:36;;;;;;;2.67;1.90;;;17.80;99.90;;;;;;5014782;28;20045;-63
2023/09/18 06:07:05;;;;;;;1.95;1.85;;;18.20;99.90;;;;;;5032403;28;20045;-63
2023/09/18 06:09:31;;;;;;;1.65;1.55;;;17.80;99.90;;;;;;5032334;28;20045;-63
2023/09/18 06:11:56;;;;;;;1.50;1.40;;;17.90;99.90;;;;;;5014502;28;20132;-64
2023/09/18 06:14:22;;;;;;;2.20;1.90;;;17.90;99.90;;;;;;5032661;28;20418;-63
2023/09/18 06:16:48;;;;;;;1.67;1.58;;;18.00;99.90;;;;;;5032133;28;20054;-63
2023/09/18 06:19:17;;;;;;;1.27;1.17;;;18.00;99.90;;;;;;5032262;28;20084;-62
2023/09/18 06:21:43;;;;;;;1.90;1.48;;;18.10;99.90;;;;;;5032311;28;20489;-63
2023/09/18 06:24:09;;;;;;;1.63;1.40;;;18.10;99.90;;;;;;5032568;28;20041;-62
2023/09/18 06:26:35;;;;;;;1.58;1.48;;;18.10;99.90;;;;;;5033492;28;20504;-63
2023/09/18 06:29:02;;;;;;;2.63;1.52;;;18.20;99.90;;;;;;5036173;28;20037;-64
2023/09/18 06:31:28;;;;;;;2.67;1.55;;;18.20;99.90;;;;;;5036171;28;20060;-64
2023/09/18 06:33:53;;;;;;;2.25;1.70;;;18.20;99.90;;;;;;5036233;28;20037;-64
2023/09/18 06:36:19;;;;;;;3.20;1.48;;;18.20;99.90;;;;;;5035837;28;20587;-64
2023/09/18 06:38:44;;;;;;;1.42;1.33;;;18.20;99.90;;;;;;5036235;28;20037;-64
2023/09/18 06:41:10;;;;;;;2.25;1.60;;;18.30;99.90;;;;;;5036091;28;20045;-64
2023/09/18 06:43:35;;;;;;;1.98;1.58;;;18.30;99.90;;;;;;5035629;28;20041;-64
2023/09/18 06:46:01;;;;;;;1.58;1.45;;;18.30;99.90;;;;;;5035660;28;20091;-63
2023/09/18 06:48:31;;;;;;;1.48;1.38;;;18.30;99.90;;;;;;5035952;28;20041;-64
2023/09/18 06:50:58;;;;;;;2.47;1.73;;;18.30;99.90;;;;;;5035848;28;20053;-64
2023/09/18 06:53:23;;;;;;;1.80;1.67;;;18.30;99.90;;;;;;5035846;28;20037;-64
2023/09/18 06:55:49;;;;;;;2.30;1.90;;;18.70;99.90;;;;;;5035762;28;20041;-66
2023/09/18 06:58:14;;;;;;;1.38;1.23;;;18.30;99.90;;;;;;5017755;28;20121;-66
2023/09/18 07:00:40;;;;;;;1.95;1.75;;;18.30;99.90;;;;;;5035460;28;20477;-65
2023/09/18 07:03:06;;;;;;;2.17;1.70;;;18.30;99.90;;;;;;5035677;28;20083;-65
2023/09/18 07:05:31;;;;;;;2.78;1.58;;;18.20;99.90;;;;;;5035678;28;20084;-66
2023/09/18 07:07:57;;;;;;;4.05;2.28;;;18.00;99.90;;;;;;5035580;28;20501;-66
2023/09/18 07:10:23;;;;;;;2.30;1.90;;;18.20;99.90;;;;;;5035161;28;20571;-67
2023/09/18 07:12:49;;;;;;;2.17;1.80;;;18.10;99.90;;;;;;5035193;28;20378;-67
2023/09/18 07:15:14;;;;;;;2.35;2.05;;;18.10;99.90;;;;;;5035246;28;20044;-66
2023/09/18 07:17:40;;;;;;;2.15;1.90;;;18.10;99.90;;;;;;5035309;28;20521;-65
2023/09/18 07:20:13;;;;;;;2.10;1.90;;;18.10;99.90;;;;;;5035292;28;20374;-66
2023/09/18 07:22:40;;;;;;;3.22;2.53;;;18.10;99.90;;;;;;5035223;28;20033;-66
2023/09/18 07:25:06;;;;;;;2.15;1.95;;;18.10;99.90;;;;;;5035233;28;20033;-65
2023/09/18 07:27:32;;;;;;;2.10;1.70;;;18.10;99.90;;;;;;5035210;28;20109;-64
2023/09/18 07:29:58;;;;;;;2.00;1.80;;;18.30;99.90;;;;;;5016988;28;20073;-65
2023/09/18 07:32:26;;;;;;;2.33;2.00;;;18.10;99.90;;;;;;5017098;28;20401;-66
2023/09/18 07:34:52;;;;;;;2.55;1.88;;;18.10;99.90;;;;;;5034872;28;20406;-65
2023/09/18 07:37:20;;;;;;;1.65;1.33;;;18.00;99.90;;;;;;5034452;28;20040;-66
2023/09/18 07:39:46;;;;;;;1.65;1.55;;;18.10;99.90;;;;;;5034055;28;20045;-67
2023/09/18 07:42:12;;;;;;;1.85;1.42;;;18.10;99.90;;;;;;5034936;28;20100;-67
2023/09/18 07:44:37;;;;;;;2.10;1.42;;;18.20;99.90;;;;;;5034487;28;20044;-67
2023/09/18 07:47:03;;;;;;;2.78;1.65;;;18.60;99.90;;;;;;5034557;28;20042;-67
2023/09/18 07:49:29;;;;;;;1.38;1.27;;;18.10;99.90;;;;;;5034807;28;20052;-68
2023/09/18 07:51:55;;;;;;;2.08;1.20;;;18.10;99.90;;;;;;5034668;28;20068;-67
2023/09/18 07:54:20;;;;;;;1.60;1.50;;;18.10;99.90;;;;;;5016708;28;20038;-67
2023/09/18 07:56:46;;;;;;;1.83;1.40;;;18.20;99.90;;;;;;5016658;28;20152;-68
2023/09/18 07:59:14;;;;;;;2.00;1.80;;;18.20;99.90;;;;;;5016555;28;20041;-67
2023/09/18 08:01:40;;;;;;;1.70;1.60;;;18.30;99.90;;;;;;5016844;28;20575;-67
2023/09/18 08:04:06;;;;;;;1.50;1.40;;;18.30;99.90;;;;;;5000094;28;20045;-67
2023/09/18 08:06:32;;;;;;;2.15;1.95;;;18.40;99.90;;;;;;5034430;28;20495;-67
2023/09/18 08:08:58;;;;;;;1.88;1.77;;;18.40;99.90;;;;;;5034360;28;20037;-67
2023/09/18 08:11:23;;;;;;;2.05;1.80;;;18.40;99.90;;;;;;5034323;28;20068;-68
2023/09/18 08:13:49;;;;;;;1.35;1.25;;;18.40;99.90;;;;;;5034292;28;20033;-67
2023/09/18 08:16:14;;;;;;;1.75;1.65;;;18.40;99.90;;;;;;5016129;28;20046;-67
2023/09/18 08:18:41;;;;;;;1.92;1.75;;;18.40;99.90;;;;;;5016285;28;20050;-66
2023/09/18 08:21:09;;;;;;;2.08;1.85;;;18.70;99.90;;;;;;5034146;28;20064;-66
2023/09/18 08:23:38;;;;;;;1.60;1.50;;;18.40;99.90;;;;;;5016220;28;20056;-67
2023/09/18 08:26:03;;;;;;;1.85;1.40;;;18.40;99.90;;;;;;5033887;28;20417;-65
2023/09/18 08:28:29;;;;;;;1.85;1.75;;;18.50;99.90;;;;;;5034022;28;20045;-66
2023/09/18 08:30:55;;;;;;;1.80;1.70;;;18.50;99.90;;;;;;5033883;28;20575;-67
2023/09/18 08:33:21;;;;;;;1.60;1.50;;;18.60;99.90;;;;;;5033926;28;20041;-68
2023/09/18 08:35:46;;;;;;;2.13;1.60;;;18.50;99.90;;;;;;5033626;28;20173;-68
2023/09/18 08:38:14;;;;;;;2.20;2.00;;;18.50;99.90;;;;;;5033893;28;20077;-67
2023/09/18 08:40:42;;;;;;;2.58;2.17;;;18.40;99.90;;;;;;5033548;28;20390;-67
2023/09/18 08:43:08;;;;;;;2.50;2.22;;;18.40;99.90;;;;;;5033458;28;20167;-67
2023/09/18 08:45:53;;;;;;;1.60;1.48;;;18.40;99.90;;;;;;5033704;28;20033;-67
2023/09/18 08:48:21;;;;;;;2.35;2.00;;;18.40;99.90;;;;;;5033450;28;20036;-69
2023/09/18 08:50:48;;;;;;;2.08;1.88;;;18.50;99.90;;;;;;5015914;28;20064;-66
2023/09/18 08:53:14;;;;;;;2.47;2.00;;;18.50;99.90;;;;;;5032425;28;20042;-65
2023/09/18 08:55:40;;;;;;;2.10;1.90;;;18.50;99.90;;;;;;5033231;28;20167;-65
2023/09/18 08:58:10;;;;;;;2.35;2.15;;;18.60;99.90;;;;;;5033547;28;20080;-67
2023/09/18 09:00:38;;;;;;;1.83;1.73;;;18.60;99.90;;;;;;5033611;28;20112;-68
2023/09/18 09:03:04;;;;;;;2.28;2.08;;;18.60;99.90;;;;;;5033113;28;20041;-69
2023/09/18 09:05:30;;;;;;;2.72;2.53;;;18.60;99.90;;;;;;5033377;28;20060;-68
2023/09/18 09:07:56;;;;;;;2.50;2.30;;;18.60;99.90;;;;;;5033292;28;20087;-68
2023/09/18 09:10:22;;;;;;;2.30;2.10;;;18.60;99.90;;;;;;5033244;28;20041;-67
2023/09/18 09:12:57;;;;;;;2.28;2.10;;;18.70;99.90;;;;;;5033246;28;20539;-69
2023/09/18 09:15:32;;;;;;;2.60;2.40;;;18.80;99.90;;;;;;5033133;28;20402;-67
2023/09/18 09:18:10;;;;;;;2.60;2.40;;;18.70;99.90;;;;;;5033228;28;20103;-68
2023/09/18 09:20:36;;;;;;;2.97;2.33;;;18.70;99.90;;;;;;5033090;28;20465;-66
2023/09/18 09:23:04;;;;;;;2.20;1.98;;;18.90;99.90;;;;;;5015011;28;20099;-70
2023/09/18 09:25:31;;;;;;;2.63;2.42;;;18.70;99.90;;;;;;5015177;28;20053;-70
2023/09/18 09:28:03;;;;;;;2.72;2.53;;;18.70;99.90;;;;;;5032903;28;20417;-71
2023/09/18 09:30:29;;;;;;;3.08;2.80;;;18.70;99.90;;;;;;5032470;28;20111;-67
2023/09/18 09:32:56;;;;;;;2.58;2.38;;;18.70;99.90;;;;;;5032771;28;20042;-68
2023/09/18 09:35:27;;;;;;;3.10;2.40;;;19.20;99.90;;;;;;5032855;28;20048;-69
2023/09/18 09:37:56;;;;;;;2.63;2.42;;;18.90;99.90;;;;;;5032825;28;20029;-67
2023/09/18 09:40:22;;;;;;;2.90;2.70;;;19.00;99.90;;;;;;5032819;28;20397;-67
2023/09/18 09:43:00;;;;;;;2.75;2.55;;;19.00;99.90;;;;;;5015032;28;20080;-66
2023/09/18 09:45:30;;;;;;;2.63;2.40;;;19.00;99.90;;;;;;5032790;28;20041;-67
2023/09/18 09:47:57;;;;;;;2.75;2.55;;;19.20;99.90;;;;;;5015147;28;20052;-67
2023/09/18 09:50:25;;;;;;;3.58;3.25;;;19.20;99.90;;;;;;5032367;28;20088;-67
2023/09/18 09:52:53;;;;;;;3.75;3.10;;;19.30;99.90;;;;;;5032683;28;20045;-67
2023/09/18 09:55:28;;;;;;;2.53;2.33;;;19.40;99.90;;;;;;5032663;28;20040;-67
2023/09/18 09:58:05;;;;;;;2.53;2.30;;;19.60;99.90;;;;;;5032358;28;20041;-67
2023/09/18 10:00:59;;;;;;;3.30;2.88;;;20.30;99.90;;;;;;5032642;28;20051;-68
2023/09/18 10:03:25;;;;;;;2.88;2.55;;;19.70;99.90;;;;;;5035170;28;20053;-68
2023/09/18 10:05:53;;;;;;;2.53;2.33;;;19.80;99.90;;;;;;5036670;28;20052;-67
2023/09/18 10:08:26;;;;;;;2.65;2.45;;;19.90;99.90;;;;;;5036321;28;20130;-68
2023/09/18 10:10:53;;;;;;;2.60;2.40;;;20.00;99.90;;;;;;5036341;28;20045;-71
2023/09/18 10:13:47;;;;;;;2.75;2.55;;;20.00;99.90;;;;;;5036562;28;20033;-72
2023/09/18 10:16:20;;;;;;;2.97;2.78;;;20.00;99.90;;;;;;5036267;28;20493;-72
2023/09/18 10:19:13;;;;;;;2.40;2.20;;;20.00;99.90;;;;;;5018465;28;20054;-71
2023/09/18 10:22:00;;;;;;;2.58;2.38;;;20.00;99.90;;;;;;5018379;28;20099;-72
2023/09/18 10:24:31;;;;;;;2.65;2.45;;;20.10;99.90;;;;;;5036057;28;20045;-72
2023/09/18 10:27:02;;;;;;;2.08;1.98;;;20.10;99.90;;;;;;5036288;28;20045;-72
2023/09/18 10:29:30;;;;;;;2.35;2.15;;;20.10;99.90;;;;;;5036251;28;20045;-73
2023/09/18 10:31:56;;;;;;;2.13;2.00;;;;;;;;;;5018005;28;20057;-72
2023/09/18 10:34:25;;;;;;;3.28;2.40;;;20.20;99.90;;;;;;5035811;28;20447;-71
2023/09/18 10:36:52;;;;;;;2.03;1.92;;;20.40;99.90;;;;;;5018032;28;20069;-72
2023/09/18 10:39:23;;;;;;;2.30;2.10;;;20.50;99.90;;;;;;5018378;28;20041;-72
2023/09/18 10:41:52;;;;;;;2.13;2.03;;;20.40;99.90;;;;;;5035960;28;20041;-73
2023/09/18 10:44:19;;;;;;;1.80;1.70;;;20.30;99.90;;;;;;5018030;28;20056;-72
2023/09/18 10:46:46;;;;;;;1.85;1.67;;;20.70;99.90;;;;;;5017815;28;20049;-72
2023/09/18 10:49:12;;;;;;;1.88;1.77;;;20.60;99.90;;;;;;5035603;28;20056;-71
2023/09/18 10:51:42;;;;;;;1.92;1.73;;;21.40;99.90;;;;;;5017945;28;20045;-70
2023/09/18 10:54:14;;;;;;;1.88;1.77;;;20.80;99.90;;;;;;5018090;28;20045;-70
2023/09/18 10:56:41;;;;;;;1.63;1.52;;;21.00;99.90;;;;;;5035702;28;20073;-70
2023/09/18 10:59:08;;;;;;;1.70;1.60;;;20.70;99.90;;;;;;5035818;28;20120;-70
2023/09/18 11:01:36;;;;;;;1.77;1.67;;;21.00;99.90;;;;;;5035454;28;20034;-71
2023/09/18 11:04:04;;;;;;;1.40;1.30;;;20.80;99.90;;;;;;5017603;28;20440;-71
2023/09/18 11:06:30;;;;;;;1.30;1.23;;;21.00;99.90;;;;;;5017513;28;20358;-70
2023/09/18 11:09:06;;;;;;;1.15;1.15;;;21.10;99.90;;;;;;5035532;28;20129;-71
2023/09/18 11:11:35;;;;;;;1.20;1.10;;;21.10;99.90;;;;;;5035411;28;20045;-72
2023/09/18 11:14:04;;;;;;;1.20;1.20;;;21.10;99.90;;;;;;5033943;28;20037;-70
2023/09/18 11:16:30;;;;;;;1.42;1.33;;;21.30;99.90;;;;;;5034921;28;20060;-71
2023/09/18 11:18:59;;;;;;;1.25;1.20;;;21.60;99.90;;;;;;5035406;28;20065;-72
2023/09/18 11:21:27;;;;;;;1.55;1.30;;;21.50;99.90;;;;;;5035079;28;20049;-68
2023/09/18 11:24:11;;;;;;;1.25;1.17;;;21.20;99.90;;;;;;5034975;28;20081;-67
2023/09/18 11:26:40;;;;;;;1.92;1.10;;;21.20;99.90;;;;;;5035232;28;20073;-66
2023/09/18 11:29:09;;;;;;;1.65;1.33;;;21.10;99.90;;;;;;5035287;28;20455;-67
2023/09/18 11:31:53;;;;;;;1.30;1.20;;;20.80;99.90;;;;;;5034755;28;20129;-67
2023/09/18 11:34:23;;;;;;;1.55;1.30;;;20.80;99.90;;;;;;5017081;28;20405;-69
2023/09/18 11:36:49;;;;;;;1.13;1.08;;;21.00;99.90;;;;;;5034750;28;20115;-66
2023/09/18 11:39:34;;;;;;;1.42;1.30;;;20.70;99.90;;;;;;5034997;28;20037;-66
2023/09/18 11:42:15;;;;;;;1.05;1.02;;;21.00;99.90;;;;;;5034876;28;20045;-66
2023/09/18 11:44:41;;;;;;;0.90;0.90;;;20.90;99.90;;;;;;5034625;28;20044;-66
2023/09/18 11:47:17;;;;;;;1.35;1.17;;;21.40;99.90;;;;;;5034829;28;20129;-66
2023/09/18 11:49:50;;;;;;;1.17;1.10;;;21.50;99.90;;;;;;5034800;28;20103;-67
2023/09/18 11:52:17;;;;;;;0.90;0.90;;;21.50;99.90;;;;;;5034775;28;20041;-66
2023/09/18 11:54:43;;;;;;;1.40;1.30;;;21.20;99.90;;;;;;5034401;28;20053;-66
2023/09/18 11:57:09;;;;;;;1.35;1.10;;;21.20;99.90;;;;;;5034340;28;20091;-66
2023/09/18 11:59:41;;;;;;;1.25;1.13;;;21.50;99.90;;;;;;5033415;28;20037;-66
2023/09/18 12:02:08;;;;;;;0.80;0.80;;;21.50;99.90;;;;;;5034381;28;20124;-66
2023/09/18 12:04:34;;;;;;;1.30;1.17;;;21.60;99.90;;;;;;5034280;28;20052;-66
2023/09/18 12:07:02;;;;;;;1.33;1.23;;;21.20;99.90;;;;;;5034510;28;20071;-66
2023/09/18 12:09:31;;;;;;;1.10;1.00;;;21.40;99.90;;;;;;5034170;28;20041;-66
2023/09/18 12:12:03;;;;;;;1.20;1.10;;;21.30;99.90;;;;;;5034356;28;20453;-66
2023/09/18 12:14:33;;;;;;;1.58;1.00;;;21.20;99.90;;;;;;5034307;28;20045;-66
2023/09/18 12:17:03;;;;;;;0.90;0.90;;;21.10;99.90;;;;;;5033959;28;20049;-67
2023/09/18 12:19:30;;;;;;;1.40;1.13;;;20.90;99.90;;;;;;5034368;28;20069;-66
2023/09/18 12:21:56;;;;;;;0.90;0.90;;;20.90;99.90;;;;;;5016525;28;20059;-66
2023/09/18 12:24:23;;;;;;;1.30;1.20;;;20.60;99.90;;;;;;5033877;28;20042;-66
2023/09/18 12:26:49;;;;;;;1.65;1.17;;;20.60;99.90;;;;;;5033800;28;20163;-66
2023/09/18 12:29:15;;;;;;;0.80;0.80;;;20.90;99.90;;;;;;5034090;28;20083;-66
2023/09/18 12:31:42;;;;;;;1.30;1.17;;;20.60;99.90;;;;;;5033998;28;20044;-72
2023/09/18 12:34:21;;;;;;;1.50;1.00;;;21.20;99.90;;;;;;5016349;28;20055;-70
2023/09/18 12:36:47;;;;;;;1.40;1.27;;;21.00;99.90;;;;;;5033855;28;20037;-70
2023/09/18 12:39:16;;;;;;;0.70;0.70;;;21.10;99.90;;;;;;5033880;28;20048;-70
2023/09/18 12:41:44;;;;;;;2.17;1.02;;;21.20;99.90;;;;;;5033467;28;20481;-71
2023/09/18 12:44:10;;;;;;;0.95;0.95;;;22.10;99.90;;;;;;5033539;28;20073;-72
2023/09/18 12:46:37;;;;;;;1.23;1.02;;;21.60;99.90;;;;;;5016081;28;20045;-71
2023/09/18 12:49:27;;;;;;;1.10;1.00;;;21.60;99.90;;;;;;5032494;28;20085;-71
2023/09/18 12:51:57;;;;;;;0.80;0.80;;;21.50;99.90;;;;;;5033328;28;20048;-71